Williamsburg, OH (45176)

8:24 AM EST on March 01, 2015 (GMT -0500)
Pleasant Acres | Change Station
CLOSE
Current Station
Personal Weather Station
Location: Batavia, OH
Elevation: 843 ft
Nearby Weather Stations
Active Advisory: Winter Weather Advisory Active Notice: Record Report

Elev 843 ft 39.07 °N, 84.15 °W | Updated 40 seconds ago

Fog
Fog
30.2 °F
Feels Like 30 °F
N
0.0
Wind Variable Wind from SW
Gusts 1.0 mph

Today
High -- | Low -- °F
--% Chance of Precip.
Yesterday
High -- | Low -- °F
Precip. -- in
7:09 AM 6:28 PM
Waxing Gibbous, 85% visible
Pressure 30.37 in
Visibility 7.0 miles
Clouds Mostly Cloudy 3500 ft
Overcast 4200 ft
Windchill 30 °F
Dew Point 25 °F
Humidity 82%
Rainfall 0.00 in
Snow Depth Not available.
UV 0 out of 12
Pollen .70 out of 12
Air Quality Not available.
Flu Activity Not available.
METAR KI69 011316Z AUTO 00000KT 7SM -SN BKN035 OVC042 00/M03 A3037 RMK AO1

More Conditions Fewer Conditions

Pressure 30.37 in
Visibility 7.0 miles
Clouds Mostly Cloudy 3500 ft
Overcast 4200 ft
Windchill 30 °F
Dew Point 25 °F
Humidity 82%
Rainfall 0.00 in
Snow Depth Not available.
UV 0 out of 12
Pollen .70 out of 12
Air Quality Not available.
Flu Activity Not available.
METAR KI69 011316Z AUTO 00000KT 7SM -SN BKN035 OVC042 00/M03 A3037 RMK AO1

More Conditions Fewer Conditions

10-Day Weather Forecast

Almanac

Astronomy

Mar. 01, 2015 Rise Set
Actual Time
Civil Twilight
Nautical Twilight
Astronomical Twilight
Moon
Length of Visible Light
Length of Day
Tomorrow will be .
, % of the Moon is Illuminated

Today's Extremes

State Highs State Lows

Community

WunderPhotos

Upload Photos

1,801,380 photos uploaded!

WunderBlogs® & News

Nearby

Air Quality

  Air Quality AQ Index Pollutant
Not available.

Snow Depth

Station Depth Elevation

Earthquake Activity

City Distance Mag. Time & Date
Minimum magnitude displayed is 2.5.

Coastal Water Temperatures

Place Temperature

Nearby Weather Stations

Winter Weather Advisory
Statement as of 4:17 AM EST on March 01, 2015

... Winter Weather Advisory remains in effect until 10 am EST this
morning...

* hazard types... snow and freezing rain.

* Accumulations... snow accumulation of up to 1 inch is
expected... along with a few hundredths of an inch of ice.

* Timing... snow and freezing rain will continue early this morning
and then change mostly rain late in the morning.

* Impacts... travel difficulties are expected due to snow and ice
accumulations.

Precautionary/preparedness actions...

Remember... a Winter Weather Advisory means that periods of snow...
sleet... or freezing rain will cause travel difficulties. Be
prepared for slippery roads and limited visibilities... and use
caution while driving. Stay tuned to NOAA Weather Radio or your
favorite source of information for the latest updates. Additional
details can also be found at www.Weather.Gov/iln... as well as on
our facebook and twitter pages.